createdAt,value
2019-03-17T00:01:33.807Z,2.70
2019-03-17T00:04:02.854Z,1.53
2019-03-17T00:06:35.474Z,1.60
2019-03-17T00:09:05.850Z,1.47
2019-03-17T00:11:34.756Z,1.00
2019-03-17T00:14:03.744Z,1.10
2019-03-17T00:16:32.962Z,1.60
2019-03-17T00:19:01.903Z,1.27
2019-03-17T00:21:30.833Z,1.30
2019-03-17T00:23:59.961Z,1.37
2019-03-17T00:26:29.017Z,1.40
2019-03-17T00:28:58.173Z,1.50
2019-03-17T00:31:27.207Z,1.60
2019-03-17T00:33:56.229Z,1.20
2019-03-17T00:36:25.375Z,1.27
2019-03-17T00:38:54.377Z,1.70
2019-03-17T00:41:23.368Z,2.27
2019-03-17T00:43:52.458Z,1.50
2019-03-17T00:46:21.630Z,1.47
2019-03-17T00:48:50.597Z,1.73
2019-03-17T00:51:19.999Z,1.77
2019-03-17T00:53:49.156Z,1.73
2019-03-17T00:56:18.874Z,1.70
2019-03-17T00:58:48.153Z,1.97
2019-03-17T01:01:17.896Z,1.57
2019-03-17T01:03:47.028Z,1.10
2019-03-17T01:06:15.916Z,2.47
2019-03-17T01:08:44.946Z,2.00
2019-03-17T01:11:14.056Z,2.37
2019-03-17T01:13:43.037Z,2.77
2019-03-17T01:16:12.488Z,2.30
2019-03-17T01:18:41.525Z,1.80
2019-03-17T01:21:10.547Z,1.97
2019-03-17T01:23:39.602Z,1.80
2019-03-17T01:26:08.636Z,2.23
2019-03-17T01:28:37.577Z,2.10
2019-03-17T01:31:06.647Z,2.07
2019-03-17T01:33:35.648Z,1.97
2019-03-17T01:36:04.761Z,2.13
2019-03-17T01:38:33.724Z,2.07
2019-03-17T01:41:02.686Z,2.13
2019-03-17T01:43:31.774Z,2.30
2019-03-17T01:46:00.990Z,3.13
2019-03-17T01:48:29.988Z,2.20
2019-03-17T01:50:58.999Z,2.73
2019-03-17T01:53:28.052Z,1.87
2019-03-17T01:55:57.146Z,1.93
2019-03-17T01:58:26.181Z,2.20
2019-03-17T02:00:55.254Z,2.00
2019-03-17T02:03:24.231Z,3.20
2019-03-17T02:05:53.247Z,1.97
2019-03-17T02:08:22.238Z,1.90
2019-03-17T02:10:51.232Z,1.77
2019-03-17T02:13:20.238Z,2.13
2019-03-17T02:15:49.209Z,2.40
2019-03-17T02:18:18.119Z,1.93
2019-03-17T02:20:47.206Z,2.83
2019-03-17T02:23:16.269Z,2.20
2019-03-17T02:25:45.699Z,2.43
2019-03-17T02:28:15.157Z,2.63
2019-03-17T02:30:44.550Z,2.40
2019-03-17T02:33:13.473Z,1.70
2019-03-17T02:35:42.605Z,2.50
2019-03-17T02:38:11.493Z,2.60
2019-03-17T02:40:40.774Z,2.23
2019-03-17T02:43:10.079Z,2.27
2019-03-17T02:45:39.156Z,3.17
2019-03-17T02:48:08.184Z,2.23
2019-03-17T02:50:37.175Z,2.43
2019-03-17T02:53:06.272Z,2.43
2019-03-17T02:55:35.240Z,2.37
2019-03-17T02:58:04.575Z,1.73
2019-03-17T03:00:33.648Z,2.57
2019-03-17T03:03:02.565Z,1.97
2019-03-17T03:05:31.699Z,2.37
2019-03-17T03:08:00.986Z,3.33
2019-03-17T03:10:32.074Z,3.10
2019-03-17T03:13:01.196Z,2.70
2019-03-17T03:15:30.202Z,3.10
2019-03-17T03:17:59.494Z,2.83
2019-03-17T03:20:28.579Z,2.00
2019-03-17T03:22:57.661Z,2.90
2019-03-17T03:25:26.635Z,3.10
2019-03-17T03:27:55.644Z,2.13
2019-03-17T03:30:24.669Z,2.20
2019-03-17T03:32:53.649Z,3.67
2019-03-17T03:35:22.892Z,2.70
2019-03-17T03:37:51.823Z,2.30
2019-03-17T03:40:20.769Z,2.60
2019-03-17T03:42:49.713Z,2.50
2019-03-17T03:45:18.682Z,2.70
2019-03-17T03:47:47.732Z,4.23
2019-03-17T03:50:16.785Z,2.60
2019-03-17T03:52:45.957Z,2.53
2019-03-17T03:55:14.944Z,3.03
2019-03-17T03:57:44.055Z,3.57
2019-03-17T04:00:13.740Z,3.33
2019-03-17T04:02:42.723Z,2.90
2019-03-17T04:05:12.166Z,2.30
2019-03-17T04:07:41.185Z,2.77
2019-03-17T04:10:13.537Z,2.80
2019-03-17T04:12:42.924Z,1.97
2019-03-17T04:15:12.524Z,2.20
2019-03-17T04:17:41.619Z,2.40
2019-03-17T04:20:11.990Z,1.67
2019-03-17T04:22:41.076Z,2.40
2019-03-17T04:25:10.711Z,1.87
2019-03-17T04:27:39.648Z,2.77
2019-03-17T04:30:08.774Z,2.05
2019-03-17T04:32:38.077Z,2.20
2019-03-17T04:35:07.776Z,3.30
2019-03-17T04:37:37.400Z,2.80
2019-03-17T04:40:06.705Z,2.37
2019-03-17T04:42:35.697Z,3.13
2019-03-17T04:45:04.852Z,3.00
2019-03-17T04:47:33.917Z,3.00
2019-03-17T04:50:03.301Z,3.07
2019-03-17T04:52:32.404Z,3.27
2019-03-17T04:55:01.453Z,3.40
2019-03-17T04:57:30.350Z,2.60
2019-03-17T04:59:59.216Z,3.33
2019-03-17T05:02:28.256Z,3.10
2019-03-17T05:04:57.507Z,3.23
2019-03-17T05:07:26.480Z,2.80
2019-03-17T05:09:55.785Z,3.20
2019-03-17T05:12:25.219Z,2.80
2019-03-17T05:14:54.266Z,3.00
2019-03-17T05:17:23.284Z,2.50
2019-03-17T05:19:52.389Z,2.90
2019-03-17T05:22:21.432Z,2.70
2019-03-17T05:24:50.406Z,2.43
2019-03-17T05:27:19.479Z,3.03
2019-03-17T05:29:48.470Z,3.50
2019-03-17T05:32:17.408Z,3.43
2019-03-17T05:34:46.400Z,3.10
2019-03-17T05:37:15.436Z,2.57
2019-03-17T05:39:44.430Z,2.03
2019-03-17T05:42:13.588Z,2.20
2019-03-17T05:44:42.652Z,1.90
2019-03-17T05:47:11.744Z,3.07
2019-03-17T05:49:40.714Z,2.80
2019-03-17T05:52:09.956Z,3.00
2019-03-17T05:54:39.268Z,2.27
2019-03-17T05:57:08.242Z,2.30
2019-03-17T05:59:37.195Z,3.30
2019-03-17T06:02:06.306Z,3.20
2019-03-17T06:04:35.337Z,3.00
2019-03-17T06:07:04.429Z,2.93
2019-03-17T06:09:33.369Z,2.73
2019-03-17T06:12:02.380Z,3.30
2019-03-17T06:14:31.272Z,3.00
2019-03-17T06:17:00.221Z,2.50
2019-03-17T06:19:29.167Z,3.00
2019-03-17T06:22:00.399Z,3.47
2019-03-17T06:24:28.967Z,3.60
2019-03-17T06:26:57.913Z,2.57
2019-03-17T06:29:26.850Z,2.70
2019-03-17T06:31:55.904Z,2.67
2019-03-17T06:34:24.946Z,2.40
2019-03-17T06:36:53.944Z,2.80
2019-03-17T06:39:24.006Z,3.27
2019-03-17T06:41:52.967Z,2.90
2019-03-17T06:44:22.296Z,2.90
2019-03-17T06:46:51.344Z,3.17
2019-03-17T06:49:20.738Z,2.93
2019-03-17T06:51:49.663Z,2.80
2019-03-17T06:54:18.920Z,4.10
2019-03-17T06:56:47.989Z,2.80
2019-03-17T06:59:17.744Z,2.20
2019-03-17T07:01:46.960Z,2.70
2019-03-17T07:04:15.868Z,2.80
2019-03-17T07:06:45.595Z,2.70
2019-03-17T07:09:14.984Z,3.43
2019-03-17T07:11:43.969Z,3.20
2019-03-17T07:14:12.962Z,2.77
2019-03-17T07:16:41.981Z,2.90
2019-03-17T07:19:10.980Z,2.53
2019-03-17T07:21:40.084Z,2.80
2019-03-17T07:24:09.190Z,2.57
2019-03-17T07:26:38.535Z,2.10
2019-03-17T07:29:07.632Z,2.40
2019-03-17T07:31:36.609Z,1.80
2019-03-17T07:34:06.002Z,1.83
2019-03-17T07:36:35.156Z,1.30
2019-03-17T07:39:11.681Z,0.90
2019-03-17T07:41:36.840Z,1.20
2019-03-17T07:44:05.885Z,1.17
2019-03-17T07:46:35.183Z,0.80
2019-03-17T07:49:04.192Z,1.37
2019-03-17T07:51:33.261Z,0.70
2019-03-17T07:54:03.081Z,0.80
2019-03-17T07:56:32.424Z,0.50
2019-03-17T07:59:01.852Z,0.63
2019-03-17T08:01:31.036Z,0.60
2019-03-17T08:04:00.059Z,0.67
2019-03-17T08:06:29.597Z,0.70
2019-03-17T08:09:00.659Z,0.80
2019-03-17T08:11:29.581Z,0.90
2019-03-17T08:13:58.918Z,0.60
2019-03-17T08:16:28.407Z,0.60
2019-03-17T08:18:58.031Z,0.90
2019-03-17T08:21:27.399Z,0.70
2019-03-17T08:23:56.308Z,0.80
2019-03-17T08:26:26.759Z,0.50
2019-03-17T08:28:56.431Z,0.50
2019-03-17T08:31:25.551Z,0.70
2019-03-17T08:33:54.664Z,0.60
2019-03-17T08:36:23.748Z,0.80
2019-03-17T08:39:11.922Z,0.70
2019-03-17T08:41:40.780Z,0.60
2019-03-17T08:44:09.579Z,0.60
2019-03-17T08:46:39.328Z,0.97
2019-03-17T08:49:08.466Z,0.83
2019-03-17T08:51:37.614Z,0.50
2019-03-17T08:54:06.761Z,0.40
2019-03-17T08:56:35.579Z,0.60
2019-03-17T08:59:04.657Z,0.50
2019-03-17T09:01:33.933Z,1.97
2019-03-17T09:04:03.386Z,0.50
2019-03-17T09:06:32.697Z,0.80
2019-03-17T09:09:01.621Z,0.70
2019-03-17T09:11:30.423Z,0.50
2019-03-17T09:13:59.375Z,0.50
2019-03-17T09:16:28.554Z,0.57
2019-03-17T09:18:57.868Z,0.50
2019-03-17T09:21:27.309Z,0.70
2019-03-17T09:23:56.125Z,0.60
2019-03-17T09:26:24.943Z,1.00
2019-03-17T09:28:53.794Z,0.70
2019-03-17T09:31:22.612Z,0.90
2019-03-17T09:33:51.478Z,0.80
2019-03-17T09:36:20.682Z,0.60
2019-03-17T09:38:49.656Z,1.33
2019-03-17T09:41:19.255Z,1.30
2019-03-17T09:43:48.176Z,0.87
2019-03-17T09:46:17.409Z,0.70
2019-03-17T09:48:46.333Z,1.00
2019-03-17T09:51:15.390Z,0.93
2019-03-17T09:53:44.256Z,0.90
2019-03-17T09:56:13.180Z,2.40
2019-03-17T09:58:42.161Z,1.20
2019-03-17T10:01:11.439Z,1.20
2019-03-17T10:03:40.359Z,1.07
2019-03-17T10:06:09.226Z,0.93
2019-03-17T10:08:42.184Z,1.30
2019-03-17T10:11:15.288Z,0.97
2019-03-17T10:13:59.095Z,1.33
2019-03-17T10:16:29.156Z,1.10
2019-03-17T10:18:58.924Z,0.83
2019-03-17T10:21:30.520Z,0.90
2019-03-17T10:24:02.798Z,1.30
2019-03-17T10:26:32.234Z,1.10
2019-03-17T10:29:01.101Z,0.80
2019-03-17T10:31:30.785Z,1.00
2019-03-17T10:33:59.631Z,1.87
2019-03-17T10:36:28.671Z,1.23
2019-03-17T10:38:57.774Z,0.60
2019-03-17T10:41:26.938Z,0.70
2019-03-17T10:43:55.776Z,1.13
2019-03-17T10:46:24.864Z,0.90
2019-03-17T10:48:54.449Z,0.87
2019-03-17T10:51:23.268Z,0.80
2019-03-17T10:53:52.667Z,1.70
2019-03-17T10:56:21.509Z,0.73
2019-03-17T10:58:50.330Z,0.60
2019-03-17T11:01:19.647Z,0.70
2019-03-17T11:03:48.457Z,1.10
2019-03-17T11:06:17.575Z,0.90
2019-03-17T11:08:46.603Z,1.67
2019-03-17T11:11:15.440Z,1.67
2019-03-17T11:13:44.300Z,1.43
2019-03-17T11:16:13.473Z,0.80
2019-03-17T11:18:42.484Z,1.00
2019-03-17T11:21:11.307Z,0.80
2019-03-17T11:23:40.280Z,1.20
2019-03-17T11:26:09.202Z,1.30
2019-03-17T11:28:38.360Z,0.80
2019-03-17T11:31:07.268Z,1.00
2019-03-17T11:33:36.150Z,1.20
2019-03-17T11:36:05.229Z,1.00
2019-03-17T11:38:34.245Z,1.00
2019-03-17T11:41:03.112Z,0.77
2019-03-17T11:43:32.143Z,1.03
2019-03-17T11:46:01.201Z,0.90
2019-03-17T11:48:30.219Z,0.97
2019-03-17T11:50:59.699Z,0.87
2019-03-17T11:53:28.602Z,1.10
2019-03-17T11:55:57.491Z,0.90
2019-03-17T11:58:26.975Z,0.90
2019-03-17T12:00:56.041Z,0.80
2019-03-17T12:03:25.011Z,0.80
2019-03-17T12:05:54.165Z,0.60
2019-03-17T12:08:23.155Z,0.80
2019-03-17T12:10:52.149Z,1.07
2019-03-17T12:13:21.099Z,0.90
2019-03-17T12:15:50.139Z,1.20
2019-03-17T12:18:18.958Z,1.10
2019-03-17T12:20:47.798Z,0.80
2019-03-17T12:23:16.915Z,1.27
2019-03-17T12:25:45.744Z,0.90
2019-03-17T12:28:14.888Z,1.17
2019-03-17T12:30:43.900Z,0.80
2019-03-17T12:33:13.051Z,1.83
2019-03-17T12:35:42.370Z,1.17
2019-03-17T12:38:11.484Z,1.00
2019-03-17T12:40:40.888Z,1.00
2019-03-17T12:43:09.895Z,0.80
2019-03-17T12:45:38.973Z,0.77
2019-03-17T12:48:08.386Z,1.00
2019-03-17T12:50:37.204Z,0.90
2019-03-17T12:53:07.911Z,1.07
2019-03-17T12:55:37.205Z,0.90
2019-03-17T12:58:06.302Z,0.80
2019-03-17T13:00:35.184Z,0.73
2019-03-17T13:03:04.450Z,0.83
2019-03-17T13:05:33.895Z,0.80
2019-03-17T13:08:04.006Z,0.80
2019-03-17T13:10:32.930Z,1.17
2019-03-17T13:13:01.901Z,1.27
2019-03-17T13:15:31.009Z,0.77
2019-03-17T13:18:09.796Z,0.93
2019-03-17T13:20:39.214Z,1.10
2019-03-17T13:23:08.211Z,0.87
2019-03-17T13:25:37.129Z,1.00
2019-03-17T13:28:06.079Z,0.93
2019-03-17T13:30:35.294Z,1.30
2019-03-17T13:33:04.172Z,2.10
2019-03-17T13:35:33.173Z,1.00
2019-03-17T13:38:02.022Z,0.90
2019-03-17T13:40:31.249Z,1.00
2019-03-17T13:43:00.269Z,1.10
2019-03-17T13:45:29.243Z,0.83
2019-03-17T13:47:58.765Z,1.17
2019-03-17T13:50:28.511Z,0.90
2019-03-17T13:52:57.460Z,1.60
2019-03-17T13:55:26.552Z,0.90
2019-03-17T13:57:56.531Z,1.17
2019-03-17T14:00:26.447Z,0.90
2019-03-17T14:02:55.768Z,0.90
2019-03-17T14:05:24.665Z,0.90
2019-03-17T14:07:54.079Z,0.90
2019-03-17T14:10:23.363Z,0.80
2019-03-17T14:12:52.471Z,0.97
2019-03-17T14:15:21.673Z,1.40
2019-03-17T14:17:50.787Z,0.97
2019-03-17T14:20:20.952Z,0.80
2019-03-17T14:22:50.321Z,1.40
2019-03-17T14:25:22.632Z,0.60
2019-03-17T14:27:51.769Z,1.00
2019-03-17T14:30:20.775Z,0.83
2019-03-17T14:32:49.710Z,0.87
2019-03-17T14:35:21.333Z,0.80
2019-03-17T14:37:49.616Z,1.20
2019-03-17T14:40:18.994Z,0.80
2019-03-17T14:42:48.112Z,0.97
2019-03-17T14:45:17.198Z,0.83
2019-03-17T14:47:46.366Z,0.90
2019-03-17T14:50:16.622Z,0.90
2019-03-17T14:52:45.610Z,0.80
2019-03-17T14:55:14.830Z,0.80
2019-03-17T14:57:43.830Z,0.80
2019-03-17T15:00:15.134Z,0.90
2019-03-17T15:02:44.321Z,0.70
2019-03-17T15:05:13.430Z,0.97
2019-03-17T15:07:42.376Z,0.90
2019-03-17T15:10:14.395Z,0.80
2019-03-17T15:12:44.087Z,0.90
2019-03-17T15:15:14.024Z,1.00
2019-03-17T15:17:47.097Z,0.80
2019-03-17T15:20:17.464Z,1.00
2019-03-17T15:22:46.367Z,1.00
2019-03-17T15:25:15.462Z,1.40
2019-03-17T15:27:44.806Z,1.20
2019-03-17T15:30:14.516Z,2.10
2019-03-17T15:32:43.515Z,1.10
2019-03-17T15:35:13.047Z,0.90
2019-03-17T15:37:42.032Z,1.10
2019-03-17T15:40:11.589Z,0.80
2019-03-17T15:42:40.543Z,0.77
2019-03-17T15:45:11.666Z,1.37
2019-03-17T15:47:40.674Z,0.70
2019-03-17T15:50:11.023Z,1.00
2019-03-17T15:52:40.064Z,0.70
2019-03-17T15:55:10.126Z,0.93
2019-03-17T15:57:39.504Z,0.60
2019-03-17T16:00:23.758Z,0.60
2019-03-17T16:02:42.792Z,0.60
2019-03-17T16:05:12.061Z,0.80
2019-03-17T16:07:42.469Z,0.73
2019-03-17T16:10:12.873Z,0.90
2019-03-17T16:12:41.940Z,0.80
2019-03-17T16:15:11.919Z,2.13
2019-03-17T16:17:40.973Z,0.70
2019-03-17T16:20:13.808Z,0.80
2019-03-17T16:22:42.714Z,1.10
2019-03-17T16:25:12.768Z,0.80
2019-03-17T16:27:41.741Z,1.07
2019-03-17T16:30:14.126Z,0.90
2019-03-17T16:32:43.465Z,0.80
2019-03-17T16:35:12.972Z,0.93
2019-03-17T16:37:45.110Z,0.90
2019-03-17T16:40:14.280Z,2.60
2019-03-17T16:42:43.170Z,0.70
2019-03-17T16:45:12.799Z,0.80
2019-03-17T16:47:42.529Z,0.80
2019-03-17T16:50:13.020Z,0.90
2019-03-17T16:52:42.023Z,0.60
2019-03-17T16:55:11.853Z,0.70
2019-03-17T16:57:40.951Z,0.80
2019-03-17T17:00:15.158Z,0.80
2019-03-17T17:02:44.634Z,0.80
2019-03-17T17:05:13.729Z,1.20
2019-03-17T17:07:42.970Z,0.90
2019-03-17T17:10:13.485Z,1.03
2019-03-17T17:12:42.479Z,0.70
2019-03-17T17:15:17.886Z,0.53
2019-03-17T17:17:46.766Z,0.67
2019-03-17T17:20:17.979Z,0.70
2019-03-17T17:23:47.408Z,0.90
2019-03-17T17:26:16.324Z,1.03
2019-03-17T17:28:45.225Z,0.90
2019-03-17T17:31:14.972Z,0.70
2019-03-17T17:33:44.230Z,1.00
2019-03-17T17:36:13.095Z,0.70
2019-03-17T17:38:43.034Z,0.90
2019-03-17T17:41:12.127Z,1.00
2019-03-17T17:43:41.025Z,1.00
2019-03-17T17:46:10.120Z,0.87
2019-03-17T17:48:39.099Z,1.10
2019-03-17T17:51:08.205Z,0.70
2019-03-17T17:53:37.141Z,0.70
2019-03-17T17:56:06.123Z,0.60
2019-03-17T17:58:35.500Z,1.10
2019-03-17T18:01:04.595Z,0.60
2019-03-17T18:03:33.680Z,0.80
2019-03-17T18:06:02.581Z,0.90
2019-03-17T18:08:31.679Z,0.90
2019-03-17T18:11:00.637Z,0.80
2019-03-17T18:13:29.549Z,0.63
2019-03-17T18:15:58.538Z,0.80
2019-03-17T18:18:27.552Z,1.17
2019-03-17T18:20:56.726Z,1.13
2019-03-17T18:23:26.038Z,0.80
2019-03-17T18:25:54.860Z,1.10
2019-03-17T18:28:23.822Z,0.90
2019-03-17T18:30:52.787Z,0.90
2019-03-17T18:33:21.623Z,0.60
2019-03-17T18:35:50.766Z,0.70
2019-03-17T18:38:19.813Z,1.07
2019-03-17T18:40:49.210Z,0.60
2019-03-17T18:43:18.266Z,0.70
2019-03-17T18:45:47.298Z,0.97
2019-03-17T18:48:16.290Z,0.50
2019-03-17T18:50:45.779Z,0.67
2019-03-17T18:53:15.029Z,0.70
2019-03-17T18:55:44.379Z,0.90
2019-03-17T18:58:13.286Z,0.60
2019-03-17T19:00:42.472Z,0.93
2019-03-17T19:03:11.287Z,0.70
2019-03-17T19:05:40.224Z,0.90
2019-03-17T19:08:09.168Z,1.57
2019-03-17T19:10:38.132Z,1.13
2019-03-17T19:13:07.129Z,1.10
2019-03-17T19:15:35.954Z,0.60
2019-03-17T19:18:05.116Z,0.60
2019-03-17T19:20:34.109Z,0.93
2019-03-17T19:23:02.928Z,1.23
2019-03-17T19:25:32.311Z,1.57
2019-03-17T19:28:01.299Z,2.07
2019-03-17T19:30:30.211Z,2.13
2019-03-17T19:32:59.151Z,1.50
2019-03-17T19:35:28.475Z,0.87
2019-03-17T19:37:57.435Z,0.97
2019-03-17T19:40:26.456Z,1.07
2019-03-17T19:42:59.698Z,1.50
2019-03-17T19:45:26.211Z,1.13
2019-03-17T19:47:55.177Z,1.20
2019-03-17T19:50:24.279Z,1.10
2019-03-17T19:52:53.415Z,0.93
2019-03-17T19:55:22.354Z,0.80
2019-03-17T19:57:51.362Z,0.80
2019-03-17T20:00:20.256Z,0.90
2019-03-17T20:02:49.251Z,1.07
2019-03-17T20:05:18.278Z,1.53
2019-03-17T20:07:47.185Z,1.00
2019-03-17T20:10:18.730Z,1.30
2019-03-17T20:12:47.784Z,1.00
2019-03-17T20:15:16.731Z,0.80
2019-03-17T20:17:45.978Z,0.97
2019-03-17T20:20:15.313Z,0.87
2019-03-17T20:22:44.464Z,1.80
2019-03-17T20:25:13.726Z,1.83
2019-03-17T20:27:42.778Z,1.53
2019-03-17T20:30:12.294Z,1.17
2019-03-17T20:32:41.182Z,0.97
2019-03-17T20:35:10.544Z,1.20
2019-03-17T20:37:39.643Z,1.10
2019-03-17T20:40:09.872Z,1.30
2019-03-17T20:42:42.248Z,1.00
2019-03-17T20:45:11.330Z,1.20
2019-03-17T20:47:40.341Z,0.90
2019-03-17T20:50:10.574Z,1.37
2019-03-17T20:52:39.759Z,1.10
2019-03-17T20:55:09.474Z,1.20
2019-03-17T20:57:38.667Z,1.20
2019-03-17T21:00:10.555Z,1.37
2019-03-17T21:02:39.451Z,0.90
2019-03-17T21:05:09.587Z,1.33
2019-03-17T21:07:38.730Z,1.00
2019-03-17T21:10:09.895Z,1.47
2019-03-17T21:12:38.972Z,1.47
2019-03-17T21:15:09.418Z,1.13
2019-03-17T21:17:38.630Z,1.10
2019-03-17T21:20:09.973Z,1.50
2019-03-17T21:22:38.913Z,1.10
2019-03-17T21:25:07.807Z,1.13
2019-03-17T21:27:36.749Z,1.10
2019-03-17T21:30:08.563Z,1.17
2019-03-17T21:32:37.584Z,1.03
2019-03-17T21:35:06.709Z,1.23
2019-03-17T21:37:35.696Z,1.50
2019-03-17T21:40:05.120Z,1.20
2019-03-17T21:42:34.012Z,1.10
2019-03-17T21:45:03.025Z,1.27
2019-03-17T21:47:31.877Z,1.00
2019-03-17T21:50:00.909Z,1.57
2019-03-17T21:52:30.048Z,0.90
2019-03-17T21:54:58.941Z,1.00
2019-03-17T21:57:27.829Z,1.10
2019-03-17T21:59:56.797Z,2.03
2019-03-17T22:02:25.831Z,1.97
2019-03-17T22:04:54.871Z,1.10
2019-03-17T22:07:23.812Z,1.10
2019-03-17T22:09:52.705Z,1.33
2019-03-17T22:12:21.571Z,1.00
2019-03-17T22:14:50.420Z,1.47
2019-03-17T22:17:19.367Z,3.20
2019-03-17T22:19:48.663Z,1.10
2019-03-17T22:22:17.580Z,1.00
2019-03-17T22:24:46.398Z,1.13
2019-03-17T22:27:15.277Z,1.20
2019-03-17T22:29:44.171Z,1.60
2019-03-17T22:32:12.987Z,1.73
2019-03-17T22:34:41.848Z,1.00
2019-03-17T22:37:10.685Z,1.23
2019-03-17T22:39:39.609Z,1.10
2019-03-17T22:42:09.418Z,1.20
2019-03-17T22:44:38.284Z,1.30
2019-03-17T22:47:07.199Z,1.50
2019-03-17T22:49:36.132Z,1.10
2019-03-17T22:52:05.141Z,1.10
2019-03-17T22:54:34.055Z,1.17
2019-03-17T22:57:02.968Z,1.77
2019-03-17T22:59:31.931Z,1.43
2019-03-17T23:02:00.992Z,1.57
2019-03-17T23:04:29.796Z,1.80
2019-03-17T23:06:58.692Z,1.50
2019-03-17T23:09:27.615Z,1.77
2019-03-17T23:11:56.655Z,2.50
2019-03-17T23:14:36.158Z,2.27
2019-03-17T23:16:56.132Z,2.20
2019-03-17T23:19:25.074Z,2.20
2019-03-17T23:21:54.065Z,2.00
2019-03-17T23:24:22.996Z,3.20
2019-03-17T23:26:51.887Z,1.80
2019-03-17T23:29:21.049Z,1.43
2019-03-17T23:31:49.914Z,1.50
2019-03-17T23:34:18.726Z,1.33
2019-03-17T23:36:47.548Z,1.77
2019-03-17T23:39:16.748Z,1.67
2019-03-17T23:41:45.556Z,1.30
2019-03-17T23:44:14.538Z,1.87
2019-03-17T23:46:43.345Z,2.00
2019-03-17T23:49:12.153Z,1.70
2019-03-17T23:51:41.079Z,1.70
2019-03-17T23:54:10.262Z,2.80
2019-03-17T23:56:39.159Z,2.50
2019-03-17T23:59:07.968Z,2.37
